createdAt,value
2023-04-28T00:01:35.711Z,77.20
2023-04-28T00:04:03.233Z,89.38
2023-04-28T00:06:30.958Z,77.00
2023-04-28T00:08:57.982Z,72.05
2023-04-28T00:11:25.843Z,62.03
2023-04-28T00:13:52.933Z,59.13
2023-04-28T00:16:20.539Z,54.30
2023-04-28T00:18:47.877Z,53.88
2023-04-28T00:21:15.478Z,44.97
2023-04-28T00:23:42.482Z,48.33
2023-04-28T00:26:09.818Z,41.47
2023-04-28T00:28:37.389Z,37.58
2023-04-28T00:31:12.571Z,35.20
2023-04-28T00:33:43.698Z,35.35
2023-04-28T00:36:11.679Z,35.55
2023-04-28T00:38:39.049Z,31.45
2023-04-28T00:41:07.314Z,32.70
2023-04-28T00:43:48.108Z,34.90
2023-04-28T00:46:29.141Z,30.25
2023-04-28T00:48:57.582Z,29.60
2023-04-28T00:51:25.558Z,34.60
2023-04-28T00:53:52.732Z,33.72
2023-04-28T00:56:20.823Z,31.85
2023-04-28T00:58:49.013Z,33.95
2023-04-28T01:01:18.969Z,31.40
2023-04-28T01:03:47.355Z,27.55
2023-04-28T01:06:16.960Z,30.13
2023-04-28T01:08:48.779Z,27.50
2023-04-28T01:11:17.557Z,25.45
2023-04-28T01:14:07.556Z,25.10
2023-04-28T01:16:38.987Z,26.25
2023-04-28T01:19:08.438Z,25.35
2023-04-28T01:21:39.040Z,27.92
2023-04-28T01:24:18.953Z,23.20
2023-04-28T01:26:46.763Z,26.42
2023-04-28T01:29:13.908Z,38.55
2023-04-28T01:31:42.842Z,39.30
2023-04-28T01:34:09.845Z,32.40
2023-04-28T01:36:37.871Z,31.02
2023-04-28T01:39:06.037Z,28.50
2023-04-28T01:41:36.411Z,28.10
2023-04-28T01:44:06.232Z,26.92
2023-04-28T01:46:34.077Z,28.83
2023-04-28T01:49:01.698Z,25.35
2023-04-28T01:51:29.142Z,26.80
2023-04-28T01:53:56.674Z,24.00
2023-04-28T01:56:25.073Z,20.80
2023-04-28T01:58:54.293Z,20.20
2023-04-28T02:01:22.285Z,19.92
2023-04-28T02:03:50.684Z,21.08
2023-04-28T02:06:18.375Z,22.30
2023-04-28T02:08:45.431Z,24.25
2023-04-28T02:11:13.628Z,20.08
2023-04-28T02:13:41.129Z,21.08
2023-04-28T02:16:08.579Z,23.70
2023-04-28T02:18:36.364Z,20.80
2023-04-28T02:21:13.390Z,19.27
2023-04-28T02:23:41.042Z,19.35
2023-04-28T02:26:08.382Z,24.13
2023-04-28T02:28:36.304Z,26.65
2023-04-28T02:31:11.440Z,24.40
2023-04-28T02:33:38.906Z,23.05
2023-04-28T02:36:08.051Z,25.65
2023-04-28T02:38:35.308Z,19.40
2023-04-28T02:41:05.348Z,24.95
2023-04-28T02:43:33.086Z,20.38
2023-04-28T02:46:01.580Z,19.75
2023-04-28T02:48:28.937Z,23.05
2023-04-28T02:50:56.637Z,19.20
2023-04-28T02:53:23.868Z,23.58
2023-04-28T02:55:51.507Z,22.88
2023-04-28T02:58:18.713Z,21.38
2023-04-28T03:00:48.416Z,23.23
2023-04-28T03:03:17.100Z,22.25
2023-04-28T03:05:44.991Z,20.05
2023-04-28T03:08:12.190Z,23.70
2023-04-28T03:10:39.953Z,21.25
2023-04-28T03:13:07.570Z,20.25
2023-04-28T03:15:36.031Z,21.48
2023-04-28T03:18:03.446Z,20.58
2023-04-28T03:20:31.159Z,21.38
2023-04-28T03:22:58.554Z,20.60
2023-04-28T03:25:26.581Z,24.02
2023-04-28T03:27:53.723Z,25.52
2023-04-28T03:30:21.186Z,20.35
2023-04-28T03:32:50.041Z,27.90
2023-04-28T03:35:18.163Z,24.17
2023-04-28T03:37:45.238Z,24.85
2023-04-28T03:40:12.768Z,24.65
2023-04-28T03:42:58.326Z,21.48
2023-04-28T03:45:36.379Z,22.77
2023-04-28T03:48:03.666Z,25.25
2023-04-28T03:50:31.305Z,26.25
2023-04-28T03:52:58.447Z,23.60
2023-04-28T03:55:26.265Z,23.02
2023-04-28T03:57:53.546Z,22.70
2023-04-28T04:00:20.981Z,27.10
2023-04-28T04:02:52.203Z,21.95
2023-04-28T04:05:20.102Z,22.42
2023-04-28T04:07:47.516Z,19.80
2023-04-28T04:10:14.824Z,24.05
2023-04-28T04:12:44.969Z,23.02
2023-04-28T04:15:12.845Z,20.10
2023-04-28T04:17:42.481Z,19.70
2023-04-28T04:20:10.471Z,28.52
2023-04-28T04:22:37.580Z,24.42
2023-04-28T04:25:06.112Z,28.55
2023-04-28T04:27:35.535Z,26.23
2023-04-28T04:30:03.247Z,29.92
2023-04-28T04:32:30.645Z,26.23
2023-04-28T04:34:58.007Z,24.95
2023-04-28T04:37:25.650Z,25.70
2023-04-28T04:39:58.381Z,24.20
2023-04-28T04:42:26.221Z,22.38
2023-04-28T04:45:17.704Z,20.20
2023-04-28T04:47:45.155Z,25.42
2023-04-28T04:50:12.620Z,26.63
2023-04-28T04:52:40.269Z,23.60
2023-04-28T04:55:08.441Z,26.50
2023-04-28T04:57:35.596Z,23.48
2023-04-28T05:00:07.575Z,19.42
2023-04-28T05:02:35.128Z,23.52
2023-04-28T05:05:19.772Z,20.33
2023-04-28T05:07:56.933Z,25.08
2023-04-28T05:10:25.087Z,23.38
2023-04-28T05:12:52.151Z,25.25
2023-04-28T05:15:19.603Z,27.48
2023-04-28T05:18:12.969Z,22.77
2023-04-28T05:20:40.806Z,25.08
2023-04-28T05:23:08.193Z,24.00
2023-04-28T05:25:36.112Z,22.60
2023-04-28T05:28:07.765Z,25.35
2023-04-28T05:30:35.521Z,24.90
2023-04-28T05:33:02.824Z,25.60
2023-04-28T05:35:31.595Z,23.83
2023-04-28T05:37:59.499Z,27.23
2023-04-28T05:40:27.622Z,25.25
2023-04-28T05:42:58.141Z,27.70
2023-04-28T05:45:26.065Z,27.65
2023-04-28T05:47:54.787Z,23.92
2023-04-28T05:50:22.400Z,25.10
2023-04-28T05:52:50.860Z,24.83
2023-04-28T05:55:18.785Z,24.77
2023-04-28T05:57:52.835Z,25.85
2023-04-28T06:00:22.240Z,25.58
2023-04-28T06:02:52.131Z,23.83
2023-04-28T06:05:23.161Z,29.52
2023-04-28T06:07:55.138Z,23.77
2023-04-28T06:10:23.734Z,27.80
2023-04-28T06:12:50.876Z,22.02
2023-04-28T06:15:18.410Z,21.08
2023-04-28T06:17:45.904Z,17.15
2023-04-28T06:20:14.213Z,16.52
2023-04-28T06:22:41.715Z,22.83
2023-04-28T06:25:09.720Z,18.60
2023-04-28T06:27:46.147Z,18.50
2023-04-28T06:30:21.207Z,17.00
2023-04-28T06:32:48.424Z,13.25
2023-04-28T06:35:16.625Z,11.45
2023-04-28T06:37:43.765Z,10.77
2023-04-28T06:40:12.130Z,11.13
2023-04-28T06:42:43.374Z,9.75
2023-04-28T06:45:13.469Z,11.38
2023-04-28T06:47:41.022Z,13.25
2023-04-28T06:50:10.257Z,14.75
2023-04-28T06:52:40.797Z,14.20
2023-04-28T06:55:11.863Z,8.48
2023-04-28T06:57:39.039Z,9.75
2023-04-28T07:00:08.126Z,6.25
2023-04-28T07:02:37.065Z,7.97
2023-04-28T07:05:05.323Z,6.32
2023-04-28T07:07:32.570Z,5.47
2023-04-28T07:10:01.039Z,7.35
2023-04-28T07:12:28.321Z,6.40
2023-04-28T07:14:56.222Z,7.05
2023-04-28T07:17:23.355Z,8.68
2023-04-28T07:19:53.753Z,10.68
2023-04-28T07:22:21.695Z,5.78
2023-04-28T07:24:49.571Z,8.52
2023-04-28T07:27:17.234Z,7.15
2023-04-28T07:29:44.825Z,8.10
2023-04-28T07:32:12.183Z,7.47
2023-04-28T07:34:39.507Z,9.57
2023-04-28T07:37:09.567Z,7.00
2023-04-28T07:39:39.832Z,5.35
2023-04-28T07:42:07.316Z,6.43
2023-04-28T07:44:35.519Z,10.48
2023-04-28T07:47:03.523Z,6.50
2023-04-28T07:49:31.740Z,6.97
2023-04-28T07:51:59.727Z,4.70
2023-04-28T07:54:27.363Z,7.05
2023-04-28T07:56:56.290Z,7.03
2023-04-28T07:59:48.848Z,5.50
2023-04-28T08:02:16.302Z,4.72
2023-04-28T08:04:44.043Z,2.90
2023-04-28T08:07:11.363Z,3.92
2023-04-28T08:09:41.112Z,4.13
2023-04-28T08:12:08.950Z,5.32
2023-04-28T08:14:36.312Z,6.55
2023-04-28T08:17:03.459Z,5.05
2023-04-28T08:19:31.232Z,5.68
2023-04-28T08:22:00.065Z,5.72
2023-04-28T08:24:30.247Z,4.05
2023-04-28T08:26:57.459Z,4.68
2023-04-28T08:29:26.055Z,5.07
2023-04-28T08:31:53.394Z,5.18
2023-04-28T08:34:21.109Z,7.70
2023-04-28T08:36:48.324Z,4.18
2023-04-28T08:39:16.156Z,5.05
2023-04-28T08:41:43.541Z,7.30
2023-04-28T08:44:11.779Z,6.03
2023-04-28T08:46:44.272Z,5.32
2023-04-28T08:49:16.336Z,9.32
2023-04-28T08:51:55.100Z,4.38
2023-04-28T08:54:27.187Z,8.30
2023-04-28T08:56:57.156Z,6.80
2023-04-28T08:59:24.576Z,4.22
2023-04-28T09:01:52.951Z,5.28
2023-04-28T09:04:21.722Z,4.22
2023-04-28T09:06:49.379Z,4.78
2023-04-28T09:09:33.320Z,3.67
2023-04-28T09:12:04.142Z,6.40
2023-04-28T09:14:34.599Z,3.85
2023-04-28T09:17:03.133Z,4.95
2023-04-28T09:19:38.255Z,8.02
2023-04-28T09:22:24.009Z,4.32
2023-04-28T09:24:54.036Z,4.45
2023-04-28T09:27:28.140Z,8.55
2023-04-28T09:29:55.658Z,5.28
2023-04-28T09:32:24.713Z,4.53
2023-04-28T09:34:54.522Z,4.38
2023-04-28T09:37:25.030Z,4.15
2023-04-28T09:39:54.387Z,5.40
2023-04-28T09:42:44.165Z,5.88
2023-04-28T09:45:13.602Z,2.90
2023-04-28T09:47:43.528Z,6.63
2023-04-28T09:50:15.087Z,6.30
2023-04-28T09:52:57.025Z,4.80
2023-04-28T09:55:25.353Z,7.72
2023-04-28T09:57:55.325Z,5.97
2023-04-28T10:00:23.499Z,4.65
2023-04-28T10:02:52.049Z,4.93
2023-04-28T10:05:21.997Z,6.70
2023-04-28T10:07:49.494Z,4.07
2023-04-28T10:10:17.188Z,7.35
2023-04-28T10:12:44.958Z,5.00
2023-04-28T10:15:13.494Z,5.10
2023-04-28T10:17:40.923Z,4.63
2023-04-28T10:20:09.085Z,5.15
2023-04-28T10:22:54.392Z,4.22
2023-04-28T10:25:31.276Z,5.13
2023-04-28T10:28:00.453Z,4.20
2023-04-28T10:30:31.359Z,5.68
2023-04-28T10:33:14.183Z,4.75
2023-04-28T10:35:48.539Z,4.38
2023-04-28T10:38:21.865Z,6.60
2023-04-28T10:40:51.103Z,5.57
2023-04-28T10:43:31.088Z,4.47
2023-04-28T10:46:01.562Z,5.78
2023-04-28T10:48:34.978Z,3.88
2023-04-28T10:51:05.685Z,6.35
2023-04-28T10:53:45.456Z,5.78
2023-04-28T10:56:27.206Z,4.55
2023-04-28T10:58:58.296Z,5.07
2023-04-28T11:01:34.806Z,5.68
2023-04-28T11:04:13.893Z,5.57
2023-04-28T11:06:43.404Z,5.90
2023-04-28T11:09:16.095Z,5.15
2023-04-28T11:12:10.828Z,5.72
2023-04-28T11:14:40.815Z,5.20
2023-04-28T11:17:13.681Z,5.07
2023-04-28T11:19:46.588Z,5.53
2023-04-28T11:22:18.574Z,3.80
2023-04-28T11:24:59.739Z,4.70
2023-04-28T11:27:29.263Z,3.90
2023-04-28T11:29:56.346Z,3.45
2023-04-28T11:32:28.980Z,5.80
2023-04-28T11:34:56.254Z,7.30
2023-04-28T11:37:24.187Z,5.40
2023-04-28T11:39:51.686Z,6.03
2023-04-28T11:42:19.499Z,9.13
2023-04-28T11:44:53.713Z,5.70
2023-04-28T11:47:34.298Z,6.07
2023-04-28T11:50:02.890Z,5.03
2023-04-28T11:52:30.411Z,5.80
2023-04-28T11:55:00.382Z,5.22
2023-04-28T11:57:28.489Z,5.00
2023-04-28T12:00:19.804Z,8.82
2023-04-28T12:02:48.538Z,6.38
2023-04-28T12:05:15.935Z,4.82
2023-04-28T12:07:44.656Z,3.70
2023-04-28T12:10:17.024Z,4.22
2023-04-28T12:12:52.017Z,3.63
2023-04-28T12:15:22.529Z,3.50
2023-04-28T12:17:50.869Z,4.55
2023-04-28T12:20:38.477Z,3.95
2023-04-28T12:23:07.614Z,8.05
2023-04-28T12:25:44.303Z,4.60
2023-04-28T12:28:11.986Z,4.40
2023-04-28T12:30:41.751Z,3.45
2023-04-28T12:33:27.362Z,3.17
2023-04-28T12:35:56.580Z,4.75
2023-04-28T12:38:24.925Z,4.60
2023-04-28T12:40:52.955Z,4.43
2023-04-28T12:43:23.140Z,4.90
2023-04-28T12:45:53.162Z,3.78
2023-04-28T12:48:23.823Z,5.40
2023-04-28T12:50:51.775Z,5.70
2023-04-28T12:53:19.167Z,6.80
2023-04-28T12:55:46.291Z,4.03
2023-04-28T12:58:13.712Z,3.22
2023-04-28T13:00:41.926Z,4.15
2023-04-28T13:03:09.716Z,4.80
2023-04-28T13:05:37.207Z,6.78
2023-04-28T13:08:05.027Z,4.47
2023-04-28T13:10:32.214Z,5.50
2023-04-28T13:13:00.046Z,4.32
2023-04-28T13:15:27.322Z,4.45
2023-04-28T13:17:54.901Z,3.38
2023-04-28T13:20:21.993Z,5.55
2023-04-28T13:22:49.580Z,4.38
2023-04-28T13:25:16.722Z,6.57
2023-04-28T13:27:44.113Z,4.47
2023-04-28T13:30:11.924Z,7.18
2023-04-28T13:32:39.792Z,5.38
2023-04-28T13:35:08.980Z,7.10
2023-04-28T13:37:39.111Z,4.28
2023-04-28T13:40:07.029Z,4.35
2023-04-28T13:42:34.576Z,5.40
2023-04-28T13:45:01.664Z,4.35
2023-04-28T13:47:32.608Z,4.45
2023-04-28T13:50:00.369Z,5.22
2023-04-28T13:52:28.493Z,4.78
2023-04-28T13:54:58.565Z,5.80
2023-04-28T13:57:27.066Z,4.40
2023-04-28T13:59:58.793Z,4.22
2023-04-28T14:02:27.453Z,4.60
2023-04-28T14:04:54.770Z,5.75
2023-04-28T14:07:22.335Z,6.18
2023-04-28T14:09:49.846Z,5.68
2023-04-28T14:12:17.340Z,5.28
2023-04-28T14:14:48.596Z,7.30
2023-04-28T14:17:17.263Z,5.65
2023-04-28T14:19:44.704Z,8.13
2023-04-28T14:22:12.609Z,5.00
2023-04-28T14:24:39.618Z,4.35
2023-04-28T14:27:09.108Z,5.30
2023-04-28T14:29:37.517Z,4.13
2023-04-28T14:32:05.124Z,5.88
2023-04-28T14:34:32.536Z,6.55
2023-04-28T14:36:59.909Z,6.18
2023-04-28T14:39:26.970Z,7.97
2023-04-28T14:41:54.406Z,6.03
2023-04-28T14:44:21.571Z,4.88
2023-04-28T14:46:49.541Z,4.55
2023-04-28T14:49:17.000Z,4.68
2023-04-28T14:51:44.389Z,5.32
2023-04-28T14:54:11.427Z,6.38
2023-04-28T14:56:39.131Z,7.28
2023-04-28T14:59:06.122Z,5.30
2023-04-28T15:01:33.745Z,6.03
2023-04-28T15:04:01.141Z,7.05
2023-04-28T15:06:29.814Z,4.10
2023-04-28T15:08:57.058Z,6.10
2023-04-28T15:11:24.583Z,4.85
2023-04-28T15:13:51.707Z,7.32
2023-04-28T15:16:19.730Z,7.72
2023-04-28T15:18:46.869Z,5.78
2023-04-28T15:21:14.310Z,5.10
2023-04-28T15:23:41.376Z,4.07
2023-04-28T15:26:10.819Z,6.00
2023-04-28T15:28:38.535Z,4.65
2023-04-28T15:31:05.942Z,5.07
2023-04-28T15:33:33.634Z,4.10
2023-04-28T15:36:01.055Z,5.68
2023-04-28T15:38:31.258Z,4.65
2023-04-28T15:40:58.941Z,5.50
2023-04-28T15:43:25.997Z,4.43
2023-04-28T15:45:53.598Z,5.28
2023-04-28T15:48:22.322Z,6.63
2023-04-28T15:50:50.138Z,4.70
2023-04-28T15:53:17.428Z,6.53
2023-04-28T15:55:45.607Z,6.45
2023-04-28T15:58:12.848Z,8.80
2023-04-28T16:00:42.080Z,9.80
2023-04-28T16:03:09.259Z,6.22
2023-04-28T16:05:38.409Z,7.45
2023-04-28T16:08:05.607Z,8.88
2023-04-28T16:10:33.340Z,4.97
2023-04-28T16:13:00.720Z,5.32
2023-04-28T16:15:28.190Z,6.57
2023-04-28T16:17:56.838Z,5.78
2023-04-28T16:20:24.871Z,5.35
2023-04-28T16:22:51.990Z,7.57
2023-04-28T16:25:19.270Z,6.45
2023-04-28T16:27:46.771Z,6.38
2023-04-28T16:30:14.509Z,6.22
2023-04-28T16:32:42.021Z,9.23
2023-04-28T16:35:15.309Z,5.38
2023-04-28T16:37:43.510Z,7.65
2023-04-28T16:40:15.258Z,5.45
2023-04-28T16:42:44.936Z,6.65
2023-04-28T16:45:13.077Z,5.40
2023-04-28T16:47:43.299Z,6.60
2023-04-28T16:50:11.444Z,6.90
2023-04-28T16:52:38.632Z,6.65
2023-04-28T16:55:06.571Z,12.07
2023-04-28T16:57:33.708Z,6.10
2023-04-28T17:00:01.101Z,6.57
2023-04-28T17:02:29.591Z,4.95
2023-04-28T17:04:57.216Z,7.07
2023-04-28T17:07:25.636Z,6.72
2023-04-28T17:09:53.302Z,7.80
2023-04-28T17:12:23.464Z,5.55
2023-04-28T17:14:51.153Z,6.85
2023-04-28T17:17:18.374Z,5.78
2023-04-28T17:19:46.381Z,5.50
2023-04-28T17:22:13.583Z,7.18
2023-04-28T17:24:40.923Z,10.05
2023-04-28T17:27:09.445Z,8.48
2023-04-28T17:29:36.957Z,10.73
2023-04-28T17:32:04.123Z,7.78
2023-04-28T17:34:31.764Z,9.32
2023-04-28T17:36:59.231Z,6.53
2023-04-28T17:39:26.797Z,11.27
2023-04-28T17:41:54.209Z,8.02
2023-04-28T17:44:21.804Z,12.43
2023-04-28T17:46:49.954Z,9.30
2023-04-28T17:49:17.333Z,13.43
2023-04-28T17:51:44.370Z,11.13
2023-04-28T17:54:12.064Z,15.30
2023-04-28T17:56:39.451Z,15.90
2023-04-28T17:59:08.250Z,16.80
2023-04-28T18:01:35.997Z,13.13
2023-04-28T18:04:03.304Z,14.88
2023-04-28T18:06:30.678Z,12.48
2023-04-28T18:08:58.248Z,16.42
2023-04-28T18:11:27.885Z,18.25
2023-04-28T18:13:55.228Z,18.00
2023-04-28T18:16:22.562Z,18.30
2023-04-28T18:18:50.248Z,18.30
2023-04-28T18:21:17.262Z,18.90
2023-04-28T18:23:44.811Z,17.67
2023-04-28T18:26:11.882Z,15.52
2023-04-28T18:28:39.262Z,16.83
2023-04-28T18:31:06.513Z,18.73
2023-04-28T18:33:33.959Z,17.60
2023-04-28T18:36:07.124Z,17.27
2023-04-28T18:38:36.306Z,14.00
2023-04-28T18:41:16.196Z,19.63
2023-04-28T18:43:44.532Z,14.73
2023-04-28T18:46:11.571Z,14.48
2023-04-28T18:48:40.092Z,17.45
2023-04-28T18:51:07.466Z,20.13
2023-04-28T18:53:35.907Z,16.77
2023-04-28T18:56:03.352Z,17.60
2023-04-28T18:58:31.161Z,17.85
2023-04-28T19:00:58.397Z,22.55
2023-04-28T19:03:26.315Z,20.70
2023-04-28T19:05:54.144Z,18.60
2023-04-28T19:08:21.377Z,20.25
2023-04-28T19:10:49.232Z,19.80
2023-04-28T19:13:16.691Z,21.83
2023-04-28T19:15:43.697Z,17.85
2023-04-28T19:18:12.529Z,20.05
2023-04-28T19:20:42.077Z,21.77
2023-04-28T19:23:09.758Z,21.48
2023-04-28T19:25:36.968Z,20.38
2023-04-28T19:28:04.612Z,19.88
2023-04-28T19:30:31.868Z,21.92
2023-04-28T19:32:59.808Z,22.45
2023-04-28T19:35:27.133Z,22.38
2023-04-28T19:37:56.048Z,21.83
2023-04-28T19:40:23.216Z,22.90
2023-04-28T19:42:51.231Z,21.30
2023-04-28T19:45:19.189Z,18.10
2023-04-28T19:47:46.485Z,16.60
2023-04-28T19:50:13.762Z,17.25
2023-04-28T19:52:41.698Z,19.40
2023-04-28T19:55:09.120Z,19.13
2023-04-28T19:57:37.189Z,22.98
2023-04-28T20:00:04.691Z,19.15
2023-04-28T20:02:35.637Z,18.17
2023-04-28T20:05:04.096Z,19.15
2023-04-28T20:07:31.833Z,21.60
2023-04-28T20:09:59.948Z,20.25
2023-04-28T20:12:27.293Z,32.00
2023-04-28T20:14:54.317Z,22.25
2023-04-28T20:17:22.478Z,18.60
2023-04-28T20:19:49.721Z,15.85
2023-04-28T20:22:17.834Z,19.50
2023-04-28T20:24:44.988Z,17.27
2023-04-28T20:27:12.562Z,21.65
2023-04-28T20:29:39.601Z,20.55
2023-04-28T20:32:07.314Z,17.60
2023-04-28T20:34:34.885Z,20.92
2023-04-28T20:37:06.560Z,17.88
2023-04-28T20:39:34.434Z,20.38
2023-04-28T20:42:02.767Z,14.73
2023-04-28T20:44:29.792Z,20.52
2023-04-28T20:46:57.561Z,17.58
2023-04-28T20:49:25.130Z,20.92
2023-04-28T20:51:52.890Z,23.20
2023-04-28T20:54:19.982Z,17.27
2023-04-28T20:56:47.442Z,20.40
2023-04-28T20:59:14.681Z,22.35
2023-04-28T21:01:42.062Z,17.70
2023-04-28T21:04:10.397Z,16.65
2023-04-28T21:06:38.383Z,17.27
2023-04-28T21:09:05.384Z,21.13
2023-04-28T21:11:32.886Z,20.15
2023-04-28T21:14:00.324Z,19.40
2023-04-28T21:16:27.805Z,20.27
2023-04-28T21:18:55.050Z,18.40
2023-04-28T21:21:22.343Z,16.30
2023-04-28T21:23:49.872Z,19.35
2023-04-28T21:26:17.317Z,15.38
2023-04-28T21:28:44.315Z,16.48
2023-04-28T21:31:12.364Z,14.73
2023-04-28T21:33:39.511Z,16.77
2023-04-28T21:36:07.981Z,15.48
2023-04-28T21:38:37.334Z,14.20
2023-04-28T21:41:05.672Z,15.43
2023-04-28T21:43:32.857Z,15.95
2023-04-28T21:46:00.759Z,19.73
2023-04-28T21:48:27.893Z,17.95
2023-04-28T21:50:55.275Z,18.75
2023-04-28T21:53:22.620Z,13.55
2023-04-28T21:55:50.034Z,15.05
2023-04-28T21:58:17.088Z,15.07
2023-04-28T22:00:47.966Z,16.65
2023-04-28T22:03:16.639Z,14.90
2023-04-28T22:05:45.038Z,18.98
2023-04-28T22:08:12.905Z,14.80
2023-04-28T22:10:41.816Z,15.15
2023-04-28T22:13:09.096Z,18.42
2023-04-28T22:15:37.375Z,18.00
2023-04-28T22:18:05.307Z,18.10
2023-04-28T22:20:33.012Z,17.27
2023-04-28T22:23:00.503Z,19.23
2023-04-28T22:25:27.964Z,16.85
2023-04-28T22:27:55.397Z,18.42
2023-04-28T22:30:24.995Z,17.83
2023-04-28T22:32:53.763Z,18.77
2023-04-28T22:35:21.144Z,19.98
2023-04-28T22:37:48.518Z,17.85
2023-04-28T22:40:16.036Z,18.90
2023-04-28T22:42:43.535Z,16.73
2023-04-28T22:45:11.863Z,16.77
2023-04-28T22:47:41.056Z,23.60
2023-04-28T22:50:09.895Z,25.58
2023-04-28T22:52:37.250Z,20.00
2023-04-28T22:55:06.620Z,19.40
2023-04-28T22:57:33.846Z,19.70
2023-04-28T23:00:02.228Z,23.05
2023-04-28T23:02:29.629Z,19.63
2023-04-28T23:04:57.412Z,18.23
2023-04-28T23:07:24.650Z,21.52
2023-04-28T23:09:52.453Z,18.52
2023-04-28T23:12:19.863Z,16.65
2023-04-28T23:14:47.221Z,17.75
2023-04-28T23:17:14.557Z,18.75
2023-04-28T23:19:42.100Z,16.65
2023-04-28T23:22:09.259Z,17.85
2023-04-28T23:24:37.963Z,16.42
2023-04-28T23:27:05.323Z,18.15
2023-04-28T23:29:33.235Z,25.58
2023-04-28T23:32:00.406Z,17.25
2023-04-28T23:34:29.253Z,16.65
2023-04-28T23:36:56.261Z,16.25
2023-04-28T23:39:23.858Z,18.10
2023-04-28T23:41:51.763Z,21.52
2023-04-28T23:44:19.324Z,21.33
2023-04-28T23:46:46.655Z,23.10
2023-04-28T23:49:13.949Z,21.52
2023-04-28T23:51:42.355Z,21.65
2023-04-28T23:54:09.856Z,24.70
2023-04-28T23:56:36.996Z,18.35
2023-04-28T23:59:05.437Z,18.10
